sensor_id;sensor_type;location;lat;lon;timestamp;temperature;humidity
12815;DHT22;6472;52.328;13.070;2023-02-04T00:00:36;3.10;99.90
12815;DHT22;6472;52.328;13.070;2023-02-04T00:03:04;3.10;99.90
12815;DHT22;6472;52.328;13.070;2023-02-04T00:05:32;3.10;99.90
12815;DHT22;6472;52.328;13.070;2023-02-04T00:08:00;3.20;99.90
12815;DHT22;6472;52.328;13.070;2023-02-04T00:10:29;3.20;99.90
12815;DHT22;6472;52.328;13.070;2023-02-04T00:12:58;3.20;99.90
12815;DHT22;6472;52.328;13.070;2023-02-04T00:15:27;3.20;99.90
12815;DHT22;6472;52.328;13.070;2023-02-04T00:17:55;3.20;99.90
12815;DHT22;6472;52.328;13.070;2023-02-04T00:20:23;3.30;99.90
12815;DHT22;6472;52.328;13.070;2023-02-04T00:22:51;3.30;99.90
12815;DHT22;6472;52.328;13.070;2023-02-04T00:25:18;3.40;99.90
12815;DHT22;6472;52.328;13.070;2023-02-04T00:27:46;3.30;99.90
12815;DHT22;6472;52.328;13.070;2023-02-04T00:30:14;3.40;99.90
12815;DHT22;6472;52.328;13.070;2023-02-04T00:32:43;3.30;99.90
12815;DHT22;6472;52.328;13.070;2023-02-04T00:35:14;3.40;99.90
12815;DHT22;6472;52.328;13.070;2023-02-04T00:37:42;3.30;99.90
12815;DHT22;6472;52.328;13.070;2023-02-04T00:40:11;3.30;99.90
12815;DHT22;6472;52.328;13.070;2023-02-04T00:42:39;3.30;99.90
12815;DHT22;6472;52.328;13.070;2023-02-04T00:45:07;3.30;99.90
12815;DHT22;6472;52.328;13.070;2023-02-04T00:47:36;3.30;99.90
12815;DHT22;6472;52.328;13.070;2023-02-04T00:50:06;3.30;99.90
12815;DHT22;6472;52.328;13.070;2023-02-04T00:52:34;3.30;99.90
12815;DHT22;6472;52.328;13.070;2023-02-04T00:55:01;3.20;99.90
12815;DHT22;6472;52.328;13.070;2023-02-04T00:57:29;3.20;99.90
12815;DHT22;6472;52.328;13.070;2023-02-04T00:59:57;3.20;99.90
12815;DHT22;6472;52.328;13.070;2023-02-04T01:02:25;3.20;99.90
12815;DHT22;6472;52.328;13.070;2023-02-04T01:04:53;3.30;99.90
12815;DHT22;6472;52.328;13.070;2023-02-04T01:07:22;3.30;99.90
12815;DHT22;6472;52.328;13.070;2023-02-04T01:09:50;3.20;99.90
12815;DHT22;6472;52.328;13.070;2023-02-04T01:12:18;3.40;99.90
12815;DHT22;6472;52.328;13.070;2023-02-04T01:14:48;3.30;99.90
12815;DHT22;6472;52.328;13.070;2023-02-04T01:17:17;3.30;99.90
12815;DHT22;6472;52.328;13.070;2023-02-04T01:19:45;3.30;99.90
12815;DHT22;6472;52.328;13.070;2023-02-04T01:22:13;3.20;99.90
12815;DHT22;6472;52.328;13.070;2023-02-04T01:24:43;3.10;99.90
12815;DHT22;6472;52.328;13.070;2023-02-04T01:27:11;3.10;99.90
12815;DHT22;6472;52.328;13.070;2023-02-04T01:29:39;3.00;99.90
12815;DHT22;6472;52.328;13.070;2023-02-04T01:32:07;3.00;99.90
12815;DHT22;6472;52.328;13.070;2023-02-04T01:34:35;2.90;99.90
12815;DHT22;6472;52.328;13.070;2023-02-04T01:37:03;2.80;99.90
12815;DHT22;6472;52.328;13.070;2023-02-04T01:39:31;2.70;99.90
12815;DHT22;6472;52.328;13.070;2023-02-04T01:42:01;2.60;99.90
12815;DHT22;6472;52.328;13.070;2023-02-04T01:44:29;2.60;99.90
12815;DHT22;6472;52.328;13.070;2023-02-04T01:46:58;2.40;99.90
12815;DHT22;6472;52.328;13.070;2023-02-04T01:49:26;2.40;99.90
12815;DHT22;6472;52.328;13.070;2023-02-04T01:51:55;2.30;99.90
12815;DHT22;6472;52.328;13.070;2023-02-04T01:54:25;2.30;99.90
12815;DHT22;6472;52.328;13.070;2023-02-04T01:56:53;2.20;99.90
12815;DHT22;6472;52.328;13.070;2023-02-04T01:59:23;2.10;99.90
12815;DHT22;6472;52.328;13.070;2023-02-04T02:01:52;2.10;99.90
12815;DHT22;6472;52.328;13.070;2023-02-04T02:04:30;2.00;99.90
12815;DHT22;6472;52.328;13.070;2023-02-04T02:07:01;2.10;99.90
12815;DHT22;6472;52.328;13.070;2023-02-04T02:09:32;2.20;99.90
12815;DHT22;6472;52.328;13.070;2023-02-04T02:12:00;2.20;99.90
12815;DHT22;6472;52.328;13.070;2023-02-04T02:14:30;2.10;99.90
12815;DHT22;6472;52.328;13.070;2023-02-04T02:16:59;2.00;99.90
12815;DHT22;6472;52.328;13.070;2023-02-04T02:19:31;2.10;99.90
12815;DHT22;6472;52.328;13.070;2023-02-04T02:22:04;2.10;99.90
12815;DHT22;6472;52.328;13.070;2023-02-04T02:24:35;2.00;99.90
12815;DHT22;6472;52.328;13.070;2023-02-04T02:27:05;1.90;99.90
12815;DHT22;6472;52.328;13.070;2023-02-04T02:29:34;1.80;99.90
12815;DHT22;6472;52.328;13.070;2023-02-04T02:32:03;1.70;99.90
12815;DHT22;6472;52.328;13.070;2023-02-04T02:34:32;1.60;99.90
12815;DHT22;6472;52.328;13.070;2023-02-04T02:37:01;1.50;99.90
12815;DHT22;6472;52.328;13.070;2023-02-04T02:39:30;1.50;99.90
12815;DHT22;6472;52.328;13.070;2023-02-04T02:41:59;1.50;99.90
12815;DHT22;6472;52.328;13.070;2023-02-04T02:44:28;1.30;99.90
12815;DHT22;6472;52.328;13.070;2023-02-04T02:46:56;1.20;99.90
12815;DHT22;6472;52.328;13.070;2023-02-04T02:49:25;1.20;99.90
12815;DHT22;6472;52.328;13.070;2023-02-04T02:51:53;1.00;99.90
12815;DHT22;6472;52.328;13.070;2023-02-04T02:54:22;1.00;99.90
12815;DHT22;6472;52.328;13.070;2023-02-04T02:56:51;1.00;99.90
12815;DHT22;6472;52.328;13.070;2023-02-04T02:59:21;1.10;99.90
12815;DHT22;6472;52.328;13.070;2023-02-04T03:01:51;1.00;99.90
12815;DHT22;6472;52.328;13.070;2023-02-04T03:04:21;0.90;99.90
12815;DHT22;6472;52.328;13.070;2023-02-04T03:06:49;0.80;99.90
12815;DHT22;6472;52.328;13.070;2023-02-04T03:09:18;0.80;99.90
12815;DHT22;6472;52.328;13.070;2023-02-04T03:11:47;0.70;99.90
12815;DHT22;6472;52.328;13.070;2023-02-04T03:14:15;0.60;99.90
12815;DHT22;6472;52.328;13.070;2023-02-04T03:16:47;0.60;99.90
12815;DHT22;6472;52.328;13.070;2023-02-04T03:19:15;0.60;99.90
12815;DHT22;6472;52.328;13.070;2023-02-04T03:21:43;0.50;99.90
12815;DHT22;6472;52.328;13.070;2023-02-04T03:24:12;0.40;99.90
12815;DHT22;6472;52.328;13.070;2023-02-04T03:26:40;0.40;99.90
12815;DHT22;6472;52.328;13.070;2023-02-04T03:29:08;0.20;99.90
12815;DHT22;6472;52.328;13.070;2023-02-04T03:31:36;0.20;99.90
12815;DHT22;6472;52.328;13.070;2023-02-04T03:34:06;0.20;99.90
12815;DHT22;6472;52.328;13.070;2023-02-04T03:36:34;0.20;99.90
12815;DHT22;6472;52.328;13.070;2023-02-04T03:39:03;0.10;99.90
12815;DHT22;6472;52.328;13.070;2023-02-04T03:41:31;0.00;99.90
12815;DHT22;6472;52.328;13.070;2023-02-04T03:43:59;0.00;99.90
12815;DHT22;6472;52.328;13.070;2023-02-04T03:46:27;-0.10;99.90
12815;DHT22;6472;52.328;13.070;2023-02-04T03:48:55;-0.20;99.90
12815;DHT22;6472;52.328;13.070;2023-02-04T03:51:24;-0.20;99.90
12815;DHT22;6472;52.328;13.070;2023-02-04T03:53:53;-0.30;99.90
12815;DHT22;6472;52.328;13.070;2023-02-04T03:56:20;-0.30;99.90
12815;DHT22;6472;52.328;13.070;2023-02-04T03:58:48;-0.40;99.90
12815;DHT22;6472;52.328;13.070;2023-02-04T04:01:16;-0.40;99.90
12815;DHT22;6472;52.328;13.070;2023-02-04T04:03:44;-0.50;99.90
12815;DHT22;6472;52.328;13.070;2023-02-04T04:06:13;-0.50;99.90
12815;DHT22;6472;52.328;13.070;2023-02-04T04:08:42;-0.50;99.90
12815;DHT22;6472;52.328;13.070;2023-02-04T04:11:10;-0.50;99.90
12815;DHT22;6472;52.328;13.070;2023-02-04T04:13:38;-0.60;99.90
12815;DHT22;6472;52.328;13.070;2023-02-04T04:16:07;-0.60;99.90
12815;DHT22;6472;52.328;13.070;2023-02-04T04:18:35;-0.50;99.90
12815;DHT22;6472;52.328;13.070;2023-02-04T04:21:03;-0.50;99.90
12815;DHT22;6472;52.328;13.070;2023-02-04T04:23:31;-0.50;99.90
12815;DHT22;6472;52.328;13.070;2023-02-04T04:26:00;-0.50;99.90
12815;DHT22;6472;52.328;13.070;2023-02-04T04:28:28;-0.50;99.90
12815;DHT22;6472;52.328;13.070;2023-02-04T04:30:56;-0.40;99.90
12815;DHT22;6472;52.328;13.070;2023-02-04T04:33:24;-0.40;99.90
12815;DHT22;6472;52.328;13.070;2023-02-04T04:35:52;-0.40;99.90
12815;DHT22;6472;52.328;13.070;2023-02-04T04:38:20;-0.40;99.90
12815;DHT22;6472;52.328;13.070;2023-02-04T04:40:49;-0.40;99.90
12815;DHT22;6472;52.328;13.070;2023-02-04T04:43:18;-0.40;99.90
12815;DHT22;6472;52.328;13.070;2023-02-04T04:45:46;-0.50;99.90
12815;DHT22;6472;52.328;13.070;2023-02-04T04:48:14;-0.50;99.90
12815;DHT22;6472;52.328;13.070;2023-02-04T04:50:42;-0.50;99.90
12815;DHT22;6472;52.328;13.070;2023-02-04T04:53:10;-0.50;99.90
12815;DHT22;6472;52.328;13.070;2023-02-04T04:55:39;-0.70;99.90
12815;DHT22;6472;52.328;13.070;2023-02-04T04:58:07;-0.70;99.90
12815;DHT22;6472;52.328;13.070;2023-02-04T05:00:36;-0.70;99.90
12815;DHT22;6472;52.328;13.070;2023-02-04T05:03:04;-0.70;99.90
12815;DHT22;6472;52.328;13.070;2023-02-04T05:05:34;-0.70;99.90
12815;DHT22;6472;52.328;13.070;2023-02-04T05:08:06;-0.70;99.90
12815;DHT22;6472;52.328;13.070;2023-02-04T05:10:36;-0.70;99.90
12815;DHT22;6472;52.328;13.070;2023-02-04T05:13:04;-0.70;99.90
12815;DHT22;6472;52.328;13.070;2023-02-04T05:15:33;-0.70;99.90
12815;DHT22;6472;52.328;13.070;2023-02-04T05:18:02;-0.70;99.90
12815;DHT22;6472;52.328;13.070;2023-02-04T05:20:30;-0.70;99.90
12815;DHT22;6472;52.328;13.070;2023-02-04T05:22:59;-0.70;99.90
12815;DHT22;6472;52.328;13.070;2023-02-04T05:25:31;-0.60;99.90
12815;DHT22;6472;52.328;13.070;2023-02-04T05:27:59;-0.60;99.90
12815;DHT22;6472;52.328;13.070;2023-02-04T05:30:27;-0.60;99.90
12815;DHT22;6472;52.328;13.070;2023-02-04T05:32:55;-0.60;99.90
12815;DHT22;6472;52.328;13.070;2023-02-04T05:35:24;-0.60;99.90
12815;DHT22;6472;52.328;13.070;2023-02-04T05:37:53;-0.60;99.90
12815;DHT22;6472;52.328;13.070;2023-02-04T05:40:21;-0.70;99.90
12815;DHT22;6472;52.328;13.070;2023-02-04T05:42:49;-0.60;99.90
12815;DHT22;6472;52.328;13.070;2023-02-04T05:45:17;-0.50;99.90
12815;DHT22;6472;52.328;13.070;2023-02-04T05:47:46;-0.50;99.90
12815;DHT22;6472;52.328;13.070;2023-02-04T05:50:15;-0.40;99.90
12815;DHT22;6472;52.328;13.070;2023-02-04T05:52:45;-0.40;99.90
12815;DHT22;6472;52.328;13.070;2023-02-04T05:55:13;-0.40;99.90
12815;DHT22;6472;52.328;13.070;2023-02-04T05:57:41;-0.60;99.90
12815;DHT22;6472;52.328;13.070;2023-02-04T06:00:10;-0.60;99.90
12815;DHT22;6472;52.328;13.070;2023-02-04T06:02:39;-0.60;99.90
12815;DHT22;6472;52.328;13.070;2023-02-04T06:08:49;-0.70;99.90
12815;DHT22;6472;52.328;13.070;2023-02-04T06:11:17;-0.80;99.90
12815;DHT22;6472;52.328;13.070;2023-02-04T06:13:45;-0.80;99.90
12815;DHT22;6472;52.328;13.070;2023-02-04T06:16:13;-0.80;99.90
12815;DHT22;6472;52.328;13.070;2023-02-04T06:18:41;-0.80;99.90
12815;DHT22;6472;52.328;13.070;2023-02-04T06:21:09;-0.80;99.90
12815;DHT22;6472;52.328;13.070;2023-02-04T06:23:37;-0.90;99.90
12815;DHT22;6472;52.328;13.070;2023-02-04T06:26:06;-0.90;99.90
12815;DHT22;6472;52.328;13.070;2023-02-04T06:28:35;-0.90;99.90
12815;DHT22;6472;52.328;13.070;2023-02-04T06:31:03;-0.90;99.90
12815;DHT22;6472;52.328;13.070;2023-02-04T06:33:31;-0.90;99.90
12815;DHT22;6472;52.328;13.070;2023-02-04T06:35:59;-0.90;99.90
12815;DHT22;6472;52.328;13.070;2023-02-04T06:38:27;-1.00;99.90
12815;DHT22;6472;52.328;13.070;2023-02-04T06:40:55;-0.90;99.90
12815;DHT22;6472;52.328;13.070;2023-02-04T06:43:25;-0.90;99.90
12815;DHT22;6472;52.328;13.070;2023-02-04T06:45:53;-0.90;99.90
12815;DHT22;6472;52.328;13.070;2023-02-04T06:48:21;-1.00;99.90
12815;DHT22;6472;52.328;13.070;2023-02-04T06:50:49;-1.00;99.90
12815;DHT22;6472;52.328;13.070;2023-02-04T06:53:17;-1.00;99.90
12815;DHT22;6472;52.328;13.070;2023-02-04T06:55:46;-1.10;99.90
12815;DHT22;6472;52.328;13.070;2023-02-04T06:58:14;-1.10;99.90
12815;DHT22;6472;52.328;13.070;2023-02-04T07:00:43;-1.20;99.90
12815;DHT22;6472;52.328;13.070;2023-02-04T07:03:12;-1.20;99.90
12815;DHT22;6472;52.328;13.070;2023-02-04T07:05:40;-1.10;99.90
12815;DHT22;6472;52.328;13.070;2023-02-04T07:08:08;-1.20;99.90
12815;DHT22;6472;52.328;13.070;2023-02-04T07:10:36;-1.20;99.90
12815;DHT22;6472;52.328;13.070;2023-02-04T07:13:04;-1.20;99.90
12815;DHT22;6472;52.328;13.070;2023-02-04T07:15:32;-1.20;99.90
12815;DHT22;6472;52.328;13.070;2023-02-04T07:18:02;-1.20;99.90
12815;DHT22;6472;52.328;13.070;2023-02-04T07:20:30;-1.20;99.90
12815;DHT22;6472;52.328;13.070;2023-02-04T07:23:00;-1.10;99.90
12815;DHT22;6472;52.328;13.070;2023-02-04T07:25:34;-1.10;99.90
12815;DHT22;6472;52.328;13.070;2023-02-04T07:28:05;-1.10;99.90
12815;DHT22;6472;52.328;13.070;2023-02-04T07:30:33;-1.00;99.90
12815;DHT22;6472;52.328;13.070;2023-02-04T07:33:03;-1.00;99.90
12815;DHT22;6472;52.328;13.070;2023-02-04T07:35:32;-0.90;99.90
12815;DHT22;6472;52.328;13.070;2023-02-04T07:38:00;-0.90;99.90
12815;DHT22;6472;52.328;13.070;2023-02-04T07:40:28;-0.80;99.90
12815;DHT22;6472;52.328;13.070;2023-02-04T07:42:57;-0.60;99.90
12815;DHT22;6472;52.328;13.070;2023-02-04T07:45:25;-0.60;99.90
12815;DHT22;6472;52.328;13.070;2023-02-04T07:47:53;-0.50;99.90
12815;DHT22;6472;52.328;13.070;2023-02-04T07:50:22;-0.40;99.90
12815;DHT22;6472;52.328;13.070;2023-02-04T07:52:51;-0.40;99.90
12815;DHT22;6472;52.328;13.070;2023-02-04T07:55:19;-0.30;99.90
12815;DHT22;6472;52.328;13.070;2023-02-04T07:57:47;-0.20;99.90
12815;DHT22;6472;52.328;13.070;2023-02-04T08:00:15;-0.20;99.90
12815;DHT22;6472;52.328;13.070;2023-02-04T08:02:44;-0.10;99.90
12815;DHT22;6472;52.328;13.070;2023-02-04T08:05:12;0.00;99.90
12815;DHT22;6472;52.328;13.070;2023-02-04T08:07:42;0.10;99.90
12815;DHT22;6472;52.328;13.070;2023-02-04T08:10:11;0.20;99.90
12815;DHT22;6472;52.328;13.070;2023-02-04T08:12:39;0.20;99.90
12815;DHT22;6472;52.328;13.070;2023-02-04T08:15:10;0.30;99.90
12815;DHT22;6472;52.328;13.070;2023-02-04T08:17:40;0.50;99.90
12815;DHT22;6472;52.328;13.070;2023-02-04T08:20:10;0.50;99.90
12815;DHT22;6472;52.328;13.070;2023-02-04T08:22:40;0.70;99.90
12815;DHT22;6472;52.328;13.070;2023-02-04T08:25:22;0.70;99.90
12815;DHT22;6472;52.328;13.070;2023-02-04T08:28:02;1.00;99.90
12815;DHT22;6472;52.328;13.070;2023-02-04T08:30:30;1.20;99.90
12815;DHT22;6472;52.328;13.070;2023-02-04T08:33:41;1.20;99.90
12815;DHT22;6472;52.328;13.070;2023-02-04T08:43:22;1.60;99.90
12815;DHT22;6472;52.328;13.070;2023-02-04T08:46:38;2.10;99.90
12815;DHT22;6472;52.328;13.070;2023-02-04T08:49:29;2.80;99.90
12815;DHT22;6472;52.328;13.070;2023-02-04T08:52:20;3.20;99.90
12815;DHT22;6472;52.328;13.070;2023-02-04T08:55:05;3.60;99.90
12815;DHT22;6472;52.328;13.070;2023-02-04T08:57:35;4.10;99.90
12815;DHT22;6472;52.328;13.070;2023-02-04T09:00:14;4.50;99.90
12815;DHT22;6472;52.328;13.070;2023-02-04T09:02:42;4.80;99.90
12815;DHT22;6472;52.328;13.070;2023-02-04T09:05:11;4.70;99.90
12815;DHT22;6472;52.328;13.070;2023-02-04T09:07:55;4.80;99.90
12815;DHT22;6472;52.328;13.070;2023-02-04T09:10:34;5.30;99.90
12815;DHT22;6472;52.328;13.070;2023-02-04T09:13:04;5.90;99.90
12815;DHT22;6472;52.328;13.070;2023-02-04T09:15:36;6.20;99.90
12815;DHT22;6472;52.328;13.070;2023-02-04T09:18:06;6.40;99.90
12815;DHT22;6472;52.328;13.070;2023-02-04T09:20:52;6.40;99.90
12815;DHT22;6472;52.328;13.070;2023-02-04T09:23:28;6.60;99.90
12815;DHT22;6472;52.328;13.070;2023-02-04T09:25:58;6.70;99.90
12815;DHT22;6472;52.328;13.070;2023-02-04T09:28:37;6.80;99.90
12815;DHT22;6472;52.328;13.070;2023-02-04T09:31:26;6.80;99.90
12815;DHT22;6472;52.328;13.070;2023-02-04T09:34:00;6.90;99.90
12815;DHT22;6472;52.328;13.070;2023-02-04T09:36:28;6.80;99.90
12815;DHT22;6472;52.328;13.070;2023-02-04T09:39:10;6.90;99.90
12815;DHT22;6472;52.328;13.070;2023-02-04T09:41:55;7.00;99.90
12815;DHT22;6472;52.328;13.070;2023-02-04T09:44:25;6.80;99.90
12815;DHT22;6472;52.328;13.070;2023-02-04T09:46:58;6.70;99.90
12815;DHT22;6472;52.328;13.070;2023-02-04T09:49:31;6.70;99.90
12815;DHT22;6472;52.328;13.070;2023-02-04T09:52:00;6.20;99.90
12815;DHT22;6472;52.328;13.070;2023-02-04T09:54:28;5.90;99.90
12815;DHT22;6472;52.328;13.070;2023-02-04T09:56:58;5.50;99.90
12815;DHT22;6472;52.328;13.070;2023-02-04T09:59:26;5.40;99.90
12815;DHT22;6472;52.328;13.070;2023-02-04T10:02:00;5.40;99.90
12815;DHT22;6472;52.328;13.070;2023-02-04T10:04:29;5.40;99.90
12815;DHT22;6472;52.328;13.070;2023-02-04T10:06:58;5.20;99.90
12815;DHT22;6472;52.328;13.070;2023-02-04T10:09:29;5.40;99.90
12815;DHT22;6472;52.328;13.070;2023-02-04T10:11:59;5.60;99.90
12815;DHT22;6472;52.328;13.070;2023-02-04T10:14:31;5.80;99.90
12815;DHT22;6472;52.328;13.070;2023-02-04T10:17:31;5.90;99.90
12815;DHT22;6472;52.328;13.070;2023-02-04T10:20:13;5.80;99.90
12815;DHT22;6472;52.328;13.070;2023-02-04T10:22:48;5.60;99.90
12815;DHT22;6472;52.328;13.070;2023-02-04T10:25:24;5.80;99.90
12815;DHT22;6472;52.328;13.070;2023-02-04T10:27:57;5.70;99.90
12815;DHT22;6472;52.328;13.070;2023-02-04T10:30:27;5.70;99.90
12815;DHT22;6472;52.328;13.070;2023-02-04T10:33:14;5.60;99.90
12815;DHT22;6472;52.328;13.070;2023-02-04T10:39:16;5.00;99.90
12815;DHT22;6472;52.328;13.070;2023-02-04T10:45:24;4.90;99.90
12815;DHT22;6472;52.328;13.070;2023-02-04T10:47:55;4.90;99.90
12815;DHT22;6472;52.328;13.070;2023-02-04T10:50:28;5.00;99.90
12815;DHT22;6472;52.328;13.070;2023-02-04T10:53:05;5.00;99.90
12815;DHT22;6472;52.328;13.070;2023-02-04T10:55:58;5.00;99.90
12815;DHT22;6472;52.328;13.070;2023-02-04T10:58:29;4.90;99.90
12815;DHT22;6472;52.328;13.070;2023-02-04T11:01:12;4.90;99.90
12815;DHT22;6472;52.328;13.070;2023-02-04T11:03:43;5.10;99.90
12815;DHT22;6472;52.328;13.070;2023-02-04T11:06:19;5.20;99.90
12815;DHT22;6472;52.328;13.070;2023-02-04T11:08:48;5.30;99.90
12815;DHT22;6472;52.328;13.070;2023-02-04T11:11:23;5.30;99.90
12815;DHT22;6472;52.328;13.070;2023-02-04T11:14:20;5.20;99.90
12815;DHT22;6472;52.328;13.070;2023-02-04T11:17:00;5.20;99.90
12815;DHT22;6472;52.328;13.070;2023-02-04T11:19:37;5.10;99.90
12815;DHT22;6472;52.328;13.070;2023-02-04T11:22:22;5.10;99.90
12815;DHT22;6472;52.328;13.070;2023-02-04T11:24:51;5.10;99.90
12815;DHT22;6472;52.328;13.070;2023-02-04T11:27:37;5.20;99.90
12815;DHT22;6472;52.328;13.070;2023-02-04T11:30:20;5.30;99.90
12815;DHT22;6472;52.328;13.070;2023-02-04T11:33:00;5.20;99.90
12815;DHT22;6472;52.328;13.070;2023-02-04T11:35:30;5.00;99.90
12815;DHT22;6472;52.328;13.070;2023-02-04T11:38:35;5.00;99.90
12815;DHT22;6472;52.328;13.070;2023-02-04T11:40:57;4.80;99.90
12815;DHT22;6472;52.328;13.070;2023-02-04T11:43:27;4.90;99.90
12815;DHT22;6472;52.328;13.070;2023-02-04T11:46:06;4.80;99.90
12815;DHT22;6472;52.328;13.070;2023-02-04T11:48:39;4.70;99.90
12815;DHT22;6472;52.328;13.070;2023-02-04T11:51:11;5.00;99.90
12815;DHT22;6472;52.328;13.070;2023-02-04T11:53:41;4.90;99.90
12815;DHT22;6472;52.328;13.070;2023-02-04T11:56:16;4.80;99.90
12815;DHT22;6472;52.328;13.070;2023-02-04T11:58:45;4.90;99.90
12815;DHT22;6472;52.328;13.070;2023-02-04T12:01:17;4.90;99.90
12815;DHT22;6472;52.328;13.070;2023-02-04T12:03:50;4.60;99.90
12815;DHT22;6472;52.328;13.070;2023-02-04T12:06:25;4.70;99.90
12815;DHT22;6472;52.328;13.070;2023-02-04T12:09:03;4.90;99.90
12815;DHT22;6472;52.328;13.070;2023-02-04T12:11:34;5.00;99.90
12815;DHT22;6472;52.328;13.070;2023-02-04T12:14:09;4.90;99.90
12815;DHT22;6472;52.328;13.070;2023-02-04T12:16:40;4.70;99.90
12815;DHT22;6472;52.328;13.070;2023-02-04T12:19:13;4.40;99.90
12815;DHT22;6472;52.328;13.070;2023-02-04T12:21:45;4.50;99.90
12815;DHT22;6472;52.328;13.070;2023-02-04T12:24:16;4.50;99.90
12815;DHT22;6472;52.328;13.070;2023-02-04T12:26:51;4.60;99.90
12815;DHT22;6472;52.328;13.070;2023-02-04T12:29:19;4.80;99.90
12815;DHT22;6472;52.328;13.070;2023-02-04T12:31:47;4.80;99.90
12815;DHT22;6472;52.328;13.070;2023-02-04T12:34:22;4.70;99.90
12815;DHT22;6472;52.328;13.070;2023-02-04T12:36:52;4.60;99.90
12815;DHT22;6472;52.328;13.070;2023-02-04T12:39:20;4.50;99.90
12815;DHT22;6472;52.328;13.070;2023-02-04T12:41:52;4.40;99.90
12815;DHT22;6472;52.328;13.070;2023-02-04T12:44:32;4.20;99.90
12815;DHT22;6472;52.328;13.070;2023-02-04T12:47:07;4.10;99.90
12815;DHT22;6472;52.328;13.070;2023-02-04T12:49:37;4.10;99.90
12815;DHT22;6472;52.328;13.070;2023-02-04T12:52:05;4.00;99.90
12815;DHT22;6472;52.328;13.070;2023-02-04T12:54:33;4.00;99.90
12815;DHT22;6472;52.328;13.070;2023-02-04T12:57:01;4.00;99.90
12815;DHT22;6472;52.328;13.070;2023-02-04T12:59:29;4.00;99.90
12815;DHT22;6472;52.328;13.070;2023-02-04T13:01:58;4.10;99.90
12815;DHT22;6472;52.328;13.070;2023-02-04T13:04:26;4.00;99.90
12815;DHT22;6472;52.328;13.070;2023-02-04T13:06:55;4.00;99.90
12815;DHT22;6472;52.328;13.070;2023-02-04T13:09:23;3.80;99.90
12815;DHT22;6472;52.328;13.070;2023-02-04T13:11:53;3.70;99.90
12815;DHT22;6472;52.328;13.070;2023-02-04T13:14:22;3.60;99.90
12815;DHT22;6472;52.328;13.070;2023-02-04T13:16:52;3.70;99.90
12815;DHT22;6472;52.328;13.070;2023-02-04T13:19:22;3.80;99.90
12815;DHT22;6472;52.328;13.070;2023-02-04T13:21:50;3.70;99.90
12815;DHT22;6472;52.328;13.070;2023-02-04T13:24:20;3.90;99.90
12815;DHT22;6472;52.328;13.070;2023-02-04T13:26:51;4.00;99.90
12815;DHT22;6472;52.328;13.070;2023-02-04T13:29:20;4.10;99.90
12815;DHT22;6472;52.328;13.070;2023-02-04T13:31:49;4.40;99.90
12815;DHT22;6472;52.328;13.070;2023-02-04T13:34:17;4.70;99.90
12815;DHT22;6472;52.328;13.070;2023-02-04T13:36:46;4.90;99.90
12815;DHT22;6472;52.328;13.070;2023-02-04T13:39:14;5.10;99.90
12815;DHT22;6472;52.328;13.070;2023-02-04T13:41:45;5.30;99.90
12815;DHT22;6472;52.328;13.070;2023-02-04T13:44:14;5.30;99.90
12815;DHT22;6472;52.328;13.070;2023-02-04T13:46:42;5.30;99.90
12815;DHT22;6472;52.328;13.070;2023-02-04T13:49:11;5.30;99.90
12815;DHT22;6472;52.328;13.070;2023-02-04T13:51:39;5.20;99.90
12815;DHT22;6472;52.328;13.070;2023-02-04T13:54:08;5.20;99.90
12815;DHT22;6472;52.328;13.070;2023-02-04T13:56:36;5.20;99.90
12815;DHT22;6472;52.328;13.070;2023-02-04T13:59:06;4.90;99.90
12815;DHT22;6472;52.328;13.070;2023-02-04T14:01:34;4.90;99.90
12815;DHT22;6472;52.328;13.070;2023-02-04T14:04:03;4.80;99.90
12815;DHT22;6472;52.328;13.070;2023-02-04T14:06:31;4.90;99.90
12815;DHT22;6472;52.328;13.070;2023-02-04T14:09:11;4.70;99.90
12815;DHT22;6472;52.328;13.070;2023-02-04T14:11:40;4.70;99.90
12815;DHT22;6472;52.328;13.070;2023-02-04T14:14:09;4.50;99.90
12815;DHT22;6472;52.328;13.070;2023-02-04T14:16:37;4.50;99.90
12815;DHT22;6472;52.328;13.070;2023-02-04T14:19:07;4.50;99.90
12815;DHT22;6472;52.328;13.070;2023-02-04T14:21:38;4.40;99.90
12815;DHT22;6472;52.328;13.070;2023-02-04T14:24:19;4.50;99.90
12815;DHT22;6472;52.328;13.070;2023-02-04T14:26:50;4.40;99.90
12815;DHT22;6472;52.328;13.070;2023-02-04T14:29:21;4.40;99.90
12815;DHT22;6472;52.328;13.070;2023-02-04T14:31:49;4.30;99.90
12815;DHT22;6472;52.328;13.070;2023-02-04T14:34:17;4.20;99.90
12815;DHT22;6472;52.328;13.070;2023-02-04T14:36:45;4.20;99.90
12815;DHT22;6472;52.328;13.070;2023-02-04T14:39:14;4.10;99.90
12815;DHT22;6472;52.328;13.070;2023-02-04T14:41:43;4.10;99.90
12815;DHT22;6472;52.328;13.070;2023-02-04T14:44:13;3.90;99.90
12815;DHT22;6472;52.328;13.070;2023-02-04T14:46:48;3.80;99.90
12815;DHT22;6472;52.328;13.070;2023-02-04T14:49:16;3.70;99.90
12815;DHT22;6472;52.328;13.070;2023-02-04T14:51:44;3.50;99.90
12815;DHT22;6472;52.328;13.070;2023-02-04T14:54:12;3.50;99.90
12815;DHT22;6472;52.328;13.070;2023-02-04T14:56:42;3.40;99.90
12815;DHT22;6472;52.328;13.070;2023-02-04T14:59:12;3.40;99.90
12815;DHT22;6472;52.328;13.070;2023-02-04T15:01:40;3.40;99.90
12815;DHT22;6472;52.328;13.070;2023-02-04T15:04:12;3.40;99.90
12815;DHT22;6472;52.328;13.070;2023-02-04T15:06:40;3.40;99.90
12815;DHT22;6472;52.328;13.070;2023-02-04T15:09:08;3.50;99.90
12815;DHT22;6472;52.328;13.070;2023-02-04T15:11:36;3.50;99.90
12815;DHT22;6472;52.328;13.070;2023-02-04T15:14:04;3.40;99.90
12815;DHT22;6472;52.328;13.070;2023-02-04T15:16:36;3.30;99.90
12815;DHT22;6472;52.328;13.070;2023-02-04T15:19:09;3.30;99.90
12815;DHT22;6472;52.328;13.070;2023-02-04T15:21:41;3.30;99.90
12815;DHT22;6472;52.328;13.070;2023-02-04T15:24:10;3.20;99.90
12815;DHT22;6472;52.328;13.070;2023-02-04T15:26:41;3.10;99.90
12815;DHT22;6472;52.328;13.070;2023-02-04T15:29:22;3.00;99.90
12815;DHT22;6472;52.328;13.070;2023-02-04T15:31:52;2.90;99.90
12815;DHT22;6472;52.328;13.070;2023-02-04T15:34:24;2.80;99.90
12815;DHT22;6472;52.328;13.070;2023-02-04T15:36:53;2.60;99.90
12815;DHT22;6472;52.328;13.070;2023-02-04T15:39:25;2.60;99.90
12815;DHT22;6472;52.328;13.070;2023-02-04T15:41:55;2.50;99.90
12815;DHT22;6472;52.328;13.070;2023-02-04T15:44:27;2.50;99.90
12815;DHT22;6472;52.328;13.070;2023-02-04T15:46:56;2.40;99.90
12815;DHT22;6472;52.328;13.070;2023-02-04T15:49:28;2.20;99.90
12815;DHT22;6472;52.328;13.070;2023-02-04T15:52:00;2.10;99.90
12815;DHT22;6472;52.328;13.070;2023-02-04T15:54:34;2.00;99.90
12815;DHT22;6472;52.328;13.070;2023-02-04T15:57:04;1.90;99.90
12815;DHT22;6472;52.328;13.070;2023-02-04T15:59:33;1.80;99.90
12815;DHT22;6472;52.328;13.070;2023-02-04T16:02:04;1.60;99.90
12815;DHT22;6472;52.328;13.070;2023-02-04T16:04:38;1.50;99.90
12815;DHT22;6472;52.328;13.070;2023-02-04T16:07:09;1.50;99.90
12815;DHT22;6472;52.328;13.070;2023-02-04T16:09:38;1.40;99.90
12815;DHT22;6472;52.328;13.070;2023-02-04T16:12:07;1.30;99.90
12815;DHT22;6472;52.328;13.070;2023-02-04T16:14:36;1.10;99.90
12815;DHT22;6472;52.328;13.070;2023-02-04T16:17:04;1.00;99.90
12815;DHT22;6472;52.328;13.070;2023-02-04T16:19:36;0.90;99.90
12815;DHT22;6472;52.328;13.070;2023-02-04T16:22:04;0.80;99.90